John F Kennedy International Airport

KJFK | JFK

New York , New-York , United States

Sunday, August 18th, 2019 | 01:09

Weather

KJFK 180451Z 14004KT 3SM BR OVC003 24/24 A2999 RMK AO2 SFC VIS 6 SLP155 T02390239 402890228

Charts

54 Available

Gates

335 Available

Runways

4 Available

Events

No events for this airport


New event